Terminal Aerodrome Forecast
Issued by NWS

Home | Current Version | Previous Version | Text Only | Print | Product List | Glossary On
Versions: 1 2 3 4 5 6 7 8 9
000
FTUS44 KEPZ 281700
TAFDMN
TAF
KDMN 281720Z 2818/2918 26005KT P6SM FEW250
     FM290200 29005KT P6SM SCT150 BKN250
     FM291200 28006KT P6SM SKC=

USA.gov is the U.S. government's official web portal to all federal, state and local government web resources and services.